createdAt,value
2017-11-28T10:27:56.301Z,82.60
2017-11-28T10:32:59.614Z,82.80
2017-11-28T10:38:02.917Z,83.70
2017-11-28T11:28:08.972Z,84.10
2017-11-28T11:33:12.490Z,83.20
2017-11-28T11:38:16.532Z,82.80
2017-11-28T11:43:19.871Z,83.40
2017-11-28T11:48:23.263Z,83.00
2017-11-28T11:53:50.012Z,84.50
2017-11-28T11:58:53.375Z,84.30
2017-11-28T12:04:03.692Z,84.20
2017-11-28T12:09:07.051Z,84.10
2017-11-28T16:36:43.897Z,86.30
2017-11-28T16:41:47.988Z,86.70
2017-11-28T16:46:51.262Z,86.70
2017-11-28T16:51:54.555Z,87.70
2017-11-28T16:56:57.827Z,87.60
2017-11-28T17:02:01.160Z,87.60
2017-11-28T17:07:05.233Z,87.80
2017-11-28T17:12:08.518Z,87.80
2017-11-28T17:17:11.811Z,88.40
2017-11-28T17:22:15.954Z,89.30
2017-11-28T17:27:20.316Z,89.30
2017-11-28T17:32:23.665Z,88.70
2017-11-28T17:37:26.997Z,88.50
2017-11-28T17:42:30.335Z,88.90
2017-11-28T17:47:34.414Z,89.80
2017-11-28T17:52:43.650Z,89.70
2017-11-28T17:57:46.989Z,89.70
2017-11-28T18:02:51.054Z,88.50
2017-11-28T18:07:54.366Z,88.50
2017-11-28T18:12:57.681Z,87.80
2017-11-28T18:18:03.007Z,87.20
2017-11-28T18:23:06.315Z,86.30
2017-11-28T18:28:09.633Z,86.20
2017-11-28T18:33:15.056Z,86.10
2017-11-28T18:38:19.122Z,86.90
2017-11-28T18:43:22.424Z,86.80
2017-11-28T18:48:26.536Z,87.40
2017-11-28T18:53:29.879Z,87.80
